Terminal Aerodrome Forecast
Issued by NWS

Home | Current Version | Previous Version | Text Only | Print | Product List | Glossary On
Versions: 1 2 3 4 5 6 7 8 9 10 11 12 13 14 15 16 17 18 19 20 21
000
FTUS46 KLOX 272342
TAFSBP
TAF
KSBP 272342Z 2800/2824 31015KT P6SM SKC
     FM280300 31008KT P6SM SCT008
     FM280500 VRB03KT 5SM BR OVC008
     FM281000 VRB03KT 3SM BR OVC006
     FM281600 VRB03KT 6SM BR OVC010
     FM282000 31015KT P6SM SCT150=

USA.gov is the U.S. government's official web portal to all federal, state and local government web resources and services.